sensor_id;sensor_type;location;lat;lon;timestamp;temperature;humidity
5956;DHT22;3004;48.080;11.600;2023-03-03T06:24:53;-0.40;99.90
5956;DHT22;3004;48.080;11.600;2023-03-03T06:27:22;-0.30;99.90
5956;DHT22;3004;48.080;11.600;2023-03-03T06:29:49;-0.30;99.90
5956;DHT22;3004;48.080;11.600;2023-03-03T06:32:16;-0.20;99.90
5956;DHT22;3004;48.080;11.600;2023-03-03T06:34:43;-0.20;99.90
5956;DHT22;3004;48.080;11.600;2023-03-03T06:37:14;-0.20;99.90
5956;DHT22;3004;48.080;11.600;2023-03-03T06:39:41;-0.20;99.90
5956;DHT22;3004;48.080;11.600;2023-03-03T06:42:08;-0.10;99.90
5956;DHT22;3004;48.080;11.600;2023-03-03T06:44:36;-0.10;99.90
5956;DHT22;3004;48.080;11.600;2023-03-03T06:47:03;-0.10;99.90
5956;DHT22;3004;48.080;11.600;2023-03-03T06:49:30;0.00;99.90
5956;DHT22;3004;48.080;11.600;2023-03-03T06:52:04;0.00;99.90
5956;DHT22;3004;48.080;11.600;2023-03-03T06:54:35;0.10;99.90
5956;DHT22;3004;48.080;11.600;2023-03-03T06:57:09;0.10;99.90
5956;DHT22;3004;48.080;11.600;2023-03-03T06:59:41;0.20;99.90
5956;DHT22;3004;48.080;11.600;2023-03-03T07:02:13;0.10;99.90
5956;DHT22;3004;48.080;11.600;2023-03-03T07:04:41;0.20;99.90
5956;DHT22;3004;48.080;11.600;2023-03-03T07:07:15;0.20;99.90
5956;DHT22;3004;48.080;11.600;2023-03-03T07:09:43;0.20;99.90
5956;DHT22;3004;48.080;11.600;2023-03-03T07:12:14;0.20;99.90
5956;DHT22;3004;48.080;11.600;2023-03-03T07:14:45;0.30;99.90
5956;DHT22;3004;48.080;11.600;2023-03-03T07:17:17;0.40;99.90
5956;DHT22;3004;48.080;11.600;2023-03-03T07:19:45;0.30;99.90
5956;DHT22;3004;48.080;11.600;2023-03-03T07:22:16;0.40;99.90
5956;DHT22;3004;48.080;11.600;2023-03-03T07:24:45;0.40;99.90
5956;DHT22;3004;48.080;11.600;2023-03-03T07:27:16;0.40;99.90
5956;DHT22;3004;48.080;11.600;2023-03-03T07:29:50;0.40;99.90
5956;DHT22;3004;48.080;11.600;2023-03-03T07:32:36;0.50;99.90
5956;DHT22;3004;48.080;11.600;2023-03-03T07:35:19;0.50;99.90
5956;DHT22;3004;48.080;11.600;2023-03-03T07:37:48;0.50;99.90
5956;DHT22;3004;48.080;11.600;2023-03-03T07:40:30;0.50;99.90
5956;DHT22;3004;48.080;11.600;2023-03-03T07:43:11;0.50;99.90
5956;DHT22;3004;48.080;11.600;2023-03-03T07:45:42;0.60;99.90
5956;DHT22;3004;48.080;11.600;2023-03-03T07:48:29;0.60;99.90
5956;DHT22;3004;48.080;11.600;2023-03-03T07:51:03;0.60;99.90
5956;DHT22;3004;48.080;11.600;2023-03-03T07:53:33;0.60;99.90
5956;DHT22;3004;48.080;11.600;2023-03-03T07:56:04;0.70;99.90
5956;DHT22;3004;48.080;11.600;2023-03-03T07:58:37;0.70;99.90
5956;DHT22;3004;48.080;11.600;2023-03-03T08:01:34;0.70;99.90
5956;DHT22;3004;48.080;11.600;2023-03-03T08:04:11;0.80;99.90
5956;DHT22;3004;48.080;11.600;2023-03-03T08:06:57;0.80;99.90
5956;DHT22;3004;48.080;11.600;2023-03-03T08:09:46;0.80;99.90
5956;DHT22;3004;48.080;11.600;2023-03-03T08:12:34;0.90;99.90
5956;DHT22;3004;48.080;11.600;2023-03-03T08:15:17;1.00;99.90
5956;DHT22;3004;48.080;11.600;2023-03-03T08:17:46;1.00;99.90
5956;DHT22;3004;48.080;11.600;2023-03-03T08:20:40;1.00;99.90
5956;DHT22;3004;48.080;11.600;2023-03-03T08:23:09;1.10;99.90
5956;DHT22;3004;48.080;11.600;2023-03-03T08:25:36;1.10;99.90
5956;DHT22;3004;48.080;11.600;2023-03-03T08:28:03;1.10;99.90
5956;DHT22;3004;48.080;11.600;2023-03-03T08:30:30;1.20;99.90
5956;DHT22;3004;48.080;11.600;2023-03-03T08:32:59;1.30;99.90
5956;DHT22;3004;48.080;11.600;2023-03-03T08:35:26;1.30;99.90
5956;DHT22;3004;48.080;11.600;2023-03-03T08:37:53;1.50;99.90
5956;DHT22;3004;48.080;11.600;2023-03-03T08:40:21;1.50;99.90
5956;DHT22;3004;48.080;11.600;2023-03-03T08:42:48;1.50;99.90
5956;DHT22;3004;48.080;11.600;2023-03-03T08:45:15;1.60;99.90
5956;DHT22;3004;48.080;11.600;2023-03-03T08:47:48;1.70;99.90
5956;DHT22;3004;48.080;11.600;2023-03-03T08:50:19;1.70;99.90
5956;DHT22;3004;48.080;11.600;2023-03-03T08:52:47;1.80;99.90
5956;DHT22;3004;48.080;11.600;2023-03-03T08:55:16;1.80;99.90
5956;DHT22;3004;48.080;11.600;2023-03-03T08:57:47;1.90;99.90
5956;DHT22;3004;48.080;11.600;2023-03-03T09:00:16;1.90;99.90
5956;DHT22;3004;48.080;11.600;2023-03-03T09:26:25;2.60;99.90
5956;DHT22;3004;48.080;11.600;2023-03-03T09:29:14;2.60;99.90
5956;DHT22;3004;48.080;11.600;2023-03-03T11:47:53;4.70;99.90
5956;DHT22;3004;48.080;11.600;2023-03-03T11:50:28;4.90;99.90
5956;DHT22;3004;48.080;11.600;2023-03-03T11:53:08;4.70;99.90
